Terminal Aerodrome Forecast
Issued by NWS

Home | Current Version | Previous Version | Text Only | Print | Product List | Glossary Off
Versions: 1 2 3 4 5 6 7 8 9 10 11 12 13

474
FTUS43 KOAX 061134 AAA
TAFCDR
TAF AMD
KCDR 061134Z 0612/0712 02007KT P6SM BKN250
     FM061500 13007KT P6SM BKN200
     FM062200 07014KT P6SM VCTS SCT060CB OVC200
     FM070500 06015KT P6SM VCSH OVC050=

USA.gov is the U.S. government's official web portal to all federal, state and local government web resources and services.